createdAt,value
2023-07-01T00:00:10.971Z,19.65
2023-07-01T00:00:27.171Z,19.66
2023-07-01T00:00:43.286Z,19.66
2023-07-01T00:00:59.444Z,19.67
2023-07-01T00:01:15.551Z,19.68
2023-07-01T00:01:31.722Z,19.7
2023-07-01T00:01:47.913Z,19.71
2023-07-01T00:02:04.198Z,19.72
2023-07-01T00:02:20.262Z,19.72
2023-07-01T00:02:36.295Z,19.7
2023-07-01T00:02:52.485Z,19.7
2023-07-01T00:03:08.658Z,19.71
2023-07-01T00:03:24.750Z,19.7
2023-07-01T00:03:40.925Z,19.71
2023-07-01T00:03:57.066Z,19.69
2023-07-01T00:04:13.323Z,19.68
2023-07-01T00:04:29.709Z,19.67
2023-07-01T00:04:45.546Z,19.62
2023-07-01T00:05:01.699Z,19.61
2023-07-01T00:05:17.877Z,19.62
2023-07-01T00:05:33.895Z,19.63
2023-07-01T00:05:50.029Z,19.64
2023-07-01T00:06:06.218Z,19.64
2023-07-01T00:06:22.342Z,19.65
2023-07-01T00:06:38.469Z,19.67
2023-07-01T00:06:54.631Z,19.68
2023-07-01T00:07:10.791Z,19.68
2023-07-01T00:07:26.919Z,19.68
2023-07-01T00:07:43.060Z,19.69
2023-07-01T00:07:59.198Z,19.69
2023-07-01T00:08:15.349Z,19.69
2023-07-01T00:08:31.528Z,19.7
2023-07-01T00:08:47.643Z,19.71
2023-07-01T00:09:03.799Z,19.72
2023-07-01T00:09:19.938Z,19.73
2023-07-01T00:09:36.129Z,19.74
2023-07-01T00:09:52.248Z,19.76
2023-07-01T00:10:08.390Z,19.76
2023-07-01T00:10:24.522Z,19.78
2023-07-01T00:10:40.656Z,19.78
2023-07-01T00:10:56.798Z,19.79
2023-07-01T00:11:12.971Z,19.8
2023-07-01T00:11:29.114Z,19.78
2023-07-01T00:11:45.227Z,19.78
2023-07-01T00:12:01.486Z,19.77
2023-07-01T00:12:17.561Z,19.76
2023-07-01T00:12:33.682Z,19.76
2023-07-01T00:12:49.806Z,19.74
2023-07-01T00:13:05.972Z,19.74
2023-07-01T00:13:22.124Z,19.74
2023-07-01T00:13:38.246Z,19.74
2023-07-01T00:13:54.391Z,19.75
2023-07-01T00:14:10.575Z,19.75
2023-07-01T00:14:26.699Z,19.76
2023-07-01T00:14:42.849Z,19.76
2023-07-01T00:14:59.003Z,19.77
2023-07-01T00:15:15.126Z,19.79
2023-07-01T00:15:31.267Z,19.78
2023-07-01T00:15:47.423Z,19.79
2023-07-01T00:16:03.563Z,19.8
2023-07-01T00:16:19.821Z,19.8
2023-07-01T00:16:35.995Z,19.81
2023-07-01T00:16:52.007Z,19.8
2023-07-01T00:17:08.166Z,19.79
2023-07-01T00:17:24.368Z,19.77
2023-07-01T00:17:40.469Z,19.76
2023-07-01T00:17:56.645Z,19.76
2023-07-01T00:18:12.758Z,19.77
2023-07-01T00:18:28.893Z,19.77
2023-07-01T00:18:45.019Z,19.77
2023-07-01T00:19:01.214Z,19.76
2023-07-01T00:19:17.317Z,19.76
2023-07-01T00:19:33.489Z,19.77
2023-07-01T00:19:49.636Z,19.78
2023-07-01T00:20:05.808Z,19.78
2023-07-01T00:20:21.902Z,19.79
2023-07-01T00:20:38.062Z,19.8
2023-07-01T00:20:54.214Z,19.81
2023-07-01T00:21:10.358Z,19.82
2023-07-01T00:21:26.462Z,19.83
2023-07-01T00:21:42.631Z,19.85
2023-07-01T00:21:58.766Z,19.85
2023-07-01T00:22:14.918Z,19.86
2023-07-01T00:22:31.062Z,19.87
2023-07-01T00:22:47.195Z,19.87
2023-07-01T00:23:03.372Z,19.87
2023-07-01T00:23:19.507Z,19.87
2023-07-01T00:23:35.726Z,19.88
2023-07-01T00:23:51.804Z,19.87
2023-07-01T00:24:07.954Z,19.86
2023-07-01T00:24:24.128Z,19.85
2023-07-01T00:24:40.230Z,19.84
2023-07-01T00:24:56.380Z,19.83
2023-07-01T00:25:12.511Z,19.84
2023-07-01T00:25:28.687Z,19.82
2023-07-01T00:25:44.800Z,19.81
2023-07-01T00:26:00.966Z,19.8
2023-07-01T00:26:17.098Z,19.79
2023-07-01T00:26:33.238Z,19.78
2023-07-01T00:26:49.384Z,19.77
2023-07-01T00:27:05.644Z,19.76
2023-07-01T00:27:21.683Z,19.76
2023-07-01T00:27:37.871Z,19.76
2023-07-01T00:27:53.975Z,19.77
2023-07-01T00:28:10.134Z,19.77
2023-07-01T00:28:26.267Z,19.77
2023-07-01T00:28:42.416Z,19.77
2023-07-01T00:28:58.573Z,19.77
2023-07-01T00:29:14.700Z,19.78
2023-07-01T00:29:30.842Z,19.78
2023-07-01T00:29:47.012Z,19.78
2023-07-01T00:30:03.201Z,19.79
2023-07-01T00:30:19.302Z,19.79
2023-07-01T00:30:35.476Z,19.8
2023-07-01T00:30:51.638Z,19.81
2023-07-01T00:31:07.785Z,19.81
2023-07-01T00:31:23.917Z,19.8
2023-07-01T00:31:40.150Z,19.8
2023-07-01T00:31:56.163Z,19.8
2023-07-01T00:32:12.443Z,19.8
2023-07-01T00:32:28.509Z,19.81
2023-07-01T00:32:44.702Z,19.82
2023-07-01T00:33:00.735Z,19.83
2023-07-01T00:33:17.006Z,19.83
2023-07-01T00:33:33.019Z,19.83
2023-07-01T00:33:49.167Z,19.82
2023-07-01T00:34:05.334Z,19.82
2023-07-01T00:34:21.473Z,19.81
2023-07-01T00:34:37.611Z,19.8
2023-07-01T00:34:53.772Z,19.81
2023-07-01T00:35:09.912Z,19.8
2023-07-01T00:35:26.130Z,19.79
2023-07-01T00:35:42.204Z,19.8
2023-07-01T00:35:58.356Z,19.8
2023-07-01T00:36:14.487Z,19.81
2023-07-01T00:36:30.653Z,19.81
2023-07-01T00:36:46.776Z,19.81
2023-07-01T00:37:02.925Z,19.8
2023-07-01T00:37:19.127Z,19.78
2023-07-01T00:37:35.208Z,19.73
2023-07-01T00:37:51.358Z,19.72
2023-07-01T00:38:07.606Z,19.71
2023-07-01T00:38:23.625Z,19.71
2023-07-01T00:38:39.855Z,19.71
2023-07-01T00:38:55.962Z,19.71
2023-07-01T00:39:12.111Z,19.72
2023-07-01T00:39:28.268Z,19.72
2023-07-01T00:39:44.377Z,19.74
2023-07-01T00:40:00.514Z,19.74
2023-07-01T00:40:16.652Z,19.72
2023-07-01T00:40:32.931Z,19.74
2023-07-01T00:40:49.299Z,19.75
2023-07-01T00:41:05.188Z,19.75
2023-07-01T00:41:21.245Z,19.77
2023-07-01T00:41:37.397Z,19.77
2023-07-01T00:41:53.546Z,19.77
2023-07-01T00:42:20.986Z,19.77
2023-07-01T00:42:37.174Z,19.77
2023-07-01T00:42:53.253Z,19.77
2023-07-01T00:43:09.412Z,19.76
2023-07-01T00:43:25.541Z,19.76
2023-07-01T00:43:41.719Z,19.77
2023-07-01T00:43:57.843Z,19.74
2023-07-01T00:44:14.016Z,19.73
2023-07-01T00:44:30.151Z,19.72
2023-07-01T00:44:46.288Z,19.73
2023-07-01T00:45:02.404Z,19.73
2023-07-01T00:45:18.560Z,19.74
2023-07-01T00:45:34.734Z,19.73
2023-07-01T00:45:50.964Z,19.73
2023-07-01T00:46:07.005Z,19.72
2023-07-01T00:46:23.273Z,19.72
2023-07-01T00:46:39.364Z,19.73
2023-07-01T00:46:55.442Z,19.74
2023-07-01T00:47:11.640Z,19.75
2023-07-01T00:47:27.758Z,19.76
2023-07-01T00:47:43.913Z,19.77
2023-07-01T00:48:00.058Z,19.77
2023-07-01T00:48:16.153Z,19.75
2023-07-01T00:48:32.331Z,19.76
2023-07-01T00:48:48.461Z,19.75
2023-07-01T00:49:04.645Z,19.76
2023-07-01T00:49:20.748Z,19.76
2023-07-01T00:49:36.900Z,19.77
2023-07-01T00:49:53.042Z,19.76
2023-07-01T00:50:09.191Z,19.76
2023-07-01T00:50:25.408Z,19.76
2023-07-01T00:50:41.533Z,19.75
2023-07-01T00:50:57.723Z,19.73
2023-07-01T00:51:13.823Z,19.72
2023-07-01T00:51:29.905Z,19.71
2023-07-01T00:51:46.067Z,19.69
2023-07-01T00:52:02.229Z,19.68
2023-07-01T00:52:18.380Z,19.68
2023-07-01T00:52:34.524Z,19.66
2023-07-01T00:52:50.657Z,19.67
2023-07-01T00:53:06.806Z,19.65
2023-07-01T00:53:22.987Z,19.63
2023-07-01T00:53:39.127Z,19.63
2023-07-01T00:53:55.218Z,19.62
2023-07-01T00:54:11.362Z,19.63
2023-07-01T00:54:27.562Z,19.62
2023-07-01T00:54:43.681Z,19.61
2023-07-01T00:54:59.793Z,19.62
2023-07-01T00:55:15.953Z,19.63
2023-07-01T00:55:32.107Z,19.63
2023-07-01T00:55:48.244Z,19.64
2023-07-01T00:56:04.409Z,19.65
2023-07-01T00:56:20.525Z,19.67
2023-07-01T00:56:36.801Z,19.68
2023-07-01T00:56:52.826Z,19.7
2023-07-01T00:57:08.982Z,19.7
2023-07-01T00:57:25.105Z,19.71
2023-07-01T00:57:41.262Z,19.72
2023-07-01T00:57:57.444Z,19.73
2023-07-01T00:58:13.537Z,19.73
2023-07-01T00:58:29.700Z,19.74
2023-07-01T00:58:45.892Z,19.74
2023-07-01T00:59:01.974Z,19.74
2023-07-01T00:59:18.158Z,19.75
2023-07-01T00:59:34.279Z,19.76
2023-07-01T00:59:50.429Z,19.76
2023-07-01T01:00:06.576Z,19.76
2023-07-01T01:00:23.463Z,19.76
2023-07-01T01:00:38.903Z,19.75
2023-07-01T01:00:55.021Z,19.75
2023-07-01T01:01:11.231Z,19.75
2023-07-01T01:01:27.366Z,19.75
2023-07-01T01:01:59.587Z,19.74
2023-07-01T01:02:15.841Z,19.72
2023-07-01T01:02:31.995Z,19.71
2023-07-01T01:02:48.092Z,19.7
2023-07-01T01:03:04.304Z,19.7
2023-07-01T01:03:20.416Z,19.71
2023-07-01T01:03:36.659Z,19.71
2023-07-01T01:03:52.698Z,19.71
2023-07-01T01:04:08.804Z,19.7
2023-07-01T01:04:24.981Z,19.69
2023-07-01T01:04:41.112Z,19.65
2023-07-01T01:04:57.194Z,19.63
2023-07-01T01:05:13.331Z,19.64
2023-07-01T01:05:29.470Z,19.6
2023-07-01T01:05:45.637Z,19.62
2023-07-01T01:06:01.813Z,19.62
2023-07-01T01:06:17.945Z,19.63
2023-07-01T01:06:34.059Z,19.63
2023-07-01T01:06:50.265Z,19.61
2023-07-01T01:07:06.371Z,19.62
2023-07-01T01:07:22.584Z,19.62
2023-07-01T01:07:38.775Z,19.62
2023-07-01T01:07:54.803Z,19.62
2023-07-01T01:08:10.966Z,19.63
2023-07-01T01:08:27.140Z,19.61
2023-07-01T01:08:43.253Z,19.6
2023-07-01T01:08:59.378Z,19.61
2023-07-01T01:09:15.521Z,19.62
2023-07-01T01:09:31.659Z,19.63
2023-07-01T01:09:47.797Z,19.63
2023-07-01T01:10:04.007Z,19.62
2023-07-01T01:10:20.091Z,19.6
2023-07-01T01:10:36.273Z,19.61
2023-07-01T01:10:52.436Z,19.61
2023-07-01T01:11:08.535Z,19.61
2023-07-01T01:11:24.695Z,19.61
2023-07-01T01:11:40.838Z,19.62
2023-07-01T01:11:57.009Z,19.63
2023-07-01T01:12:13.175Z,19.63
2023-07-01T01:12:29.310Z,19.63
2023-07-01T01:12:45.407Z,19.64
2023-07-01T01:13:01.559Z,19.61
2023-07-01T01:13:17.708Z,19.62
2023-07-01T01:13:33.855Z,19.6
2023-07-01T01:13:49.996Z,19.61
2023-07-01T01:14:06.208Z,19.62
2023-07-01T01:14:22.284Z,19.62
2023-07-01T01:14:38.427Z,19.61
2023-07-01T01:14:54.623Z,19.6
2023-07-01T01:15:10.729Z,19.62
2023-07-01T01:15:26.898Z,19.61
2023-07-01T01:15:43.031Z,19.62
2023-07-01T01:15:59.191Z,19.57
2023-07-01T01:16:15.519Z,19.55
2023-07-01T01:16:31.562Z,19.55
2023-07-01T01:16:47.608Z,19.56
2023-07-01T01:17:03.788Z,19.56
2023-07-01T01:17:19.969Z,19.57
2023-07-01T01:17:52.189Z,19.57
2023-07-01T01:18:08.354Z,19.55
2023-07-01T01:18:24.461Z,19.56
2023-07-01T01:18:40.630Z,19.56
2023-07-01T01:18:56.769Z,19.56
2023-07-01T01:19:12.906Z,19.57
2023-07-01T01:19:29.077Z,19.56
2023-07-01T01:19:45.193Z,19.56
2023-07-01T01:20:01.385Z,19.53
2023-07-01T01:20:17.734Z,19.54
2023-07-01T01:20:33.666Z,19.53
2023-07-01T01:20:49.827Z,19.54
2023-07-01T01:21:05.953Z,19.55
2023-07-01T01:21:22.065Z,19.56
2023-07-01T01:21:38.272Z,19.57
2023-07-01T01:21:54.384Z,19.58
2023-07-01T01:22:10.518Z,19.6
2023-07-01T01:22:26.648Z,19.61
2023-07-01T01:22:47.020Z,19.61
2023-07-01T01:22:58.938Z,19.62
2023-07-01T01:23:15.098Z,19.63
2023-07-01T01:23:31.286Z,19.64
2023-07-01T01:23:47.394Z,19.65
2023-07-01T01:24:03.530Z,19.65
2023-07-01T01:24:19.663Z,19.65
2023-07-01T01:24:35.814Z,19.65
2023-07-01T01:24:51.958Z,19.65
2023-07-01T01:25:08.144Z,19.64
2023-07-01T01:25:24.270Z,19.64
2023-07-01T01:25:40.405Z,19.63
2023-07-01T01:25:56.542Z,19.64
2023-07-01T01:26:12.691Z,19.65
2023-07-01T01:26:28.835Z,19.67
2023-07-01T01:26:44.988Z,19.67
2023-07-01T01:27:01.162Z,19.67
2023-07-01T01:27:17.263Z,19.68
2023-07-01T01:27:33.410Z,19.69
2023-07-01T01:27:49.563Z,19.7
2023-07-01T01:28:05.729Z,19.71
2023-07-01T01:28:21.859Z,19.71
2023-07-01T01:28:38.025Z,19.71
2023-07-01T01:28:54.146Z,19.71
2023-07-01T01:29:10.281Z,19.71
2023-07-01T01:29:26.472Z,19.72
2023-07-01T01:29:42.586Z,19.71
2023-07-01T01:29:58.759Z,19.7
2023-07-01T01:30:14.881Z,19.7
2023-07-01T01:30:31.004Z,19.68
2023-07-01T01:30:47.411Z,19.68
2023-07-01T01:31:03.350Z,19.67
2023-07-01T01:31:19.510Z,19.67
2023-07-01T01:31:35.662Z,19.67
2023-07-01T01:31:51.752Z,19.67
2023-07-01T01:32:07.884Z,19.66
2023-07-01T01:32:24.288Z,19.67
2023-07-01T01:32:40.248Z,19.67
2023-07-01T01:32:56.369Z,19.68
2023-07-01T01:33:12.476Z,19.67
2023-07-01T01:33:28.644Z,19.67
2023-07-01T01:33:44.820Z,19.66
2023-07-01T01:34:00.920Z,19.67
2023-07-01T01:34:17.045Z,19.66
2023-07-01T01:34:33.195Z,19.63
2023-07-01T01:34:49.352Z,19.62
2023-07-01T01:35:05.492Z,19.6
2023-07-01T01:35:21.675Z,19.59
2023-07-01T01:35:37.829Z,19.58
2023-07-01T01:35:53.937Z,19.57
2023-07-01T01:36:21.389Z,19.55
2023-07-01T01:36:37.511Z,19.56
2023-07-01T01:36:53.659Z,19.56
2023-07-01T01:37:09.841Z,19.56
2023-07-01T01:37:25.960Z,19.55
2023-07-01T01:37:42.100Z,19.54
2023-07-01T01:37:58.273Z,19.52
2023-07-01T01:38:14.414Z,19.53
2023-07-01T01:38:30.527Z,19.52
2023-07-01T01:38:46.690Z,19.53
2023-07-01T01:39:02.857Z,19.52
2023-07-01T01:39:18.951Z,19.53
2023-07-01T01:39:35.105Z,19.53
2023-07-01T01:39:51.301Z,19.54
2023-07-01T01:40:07.394Z,19.55
2023-07-01T01:40:23.567Z,19.56
2023-07-01T01:40:39.702Z,19.55
2023-07-01T01:40:55.834Z,19.55
2023-07-01T01:41:11.980Z,19.56
2023-07-01T01:41:28.124Z,19.56
2023-07-01T01:41:44.278Z,19.57
2023-07-01T01:42:00.471Z,19.57
2023-07-01T01:42:16.577Z,19.58
2023-07-01T01:42:32.708Z,19.58
2023-07-01T01:42:48.895Z,19.58
2023-07-01T01:43:05.038Z,19.59
2023-07-01T01:43:21.143Z,19.59
2023-07-01T01:43:37.292Z,19.61
2023-07-01T01:43:53.484Z,19.62
2023-07-01T01:44:09.634Z,19.63
2023-07-01T01:44:25.724Z,19.63
2023-07-01T01:44:41.925Z,19.64
2023-07-01T01:44:58.052Z,19.64
2023-07-01T01:45:14.204Z,19.64
2023-07-01T01:45:30.315Z,19.65
2023-07-01T01:45:46.479Z,19.65
2023-07-01T01:46:02.630Z,19.65
2023-07-01T01:46:18.848Z,19.66
2023-07-01T01:46:34.941Z,19.66
2023-07-01T01:46:51.126Z,19.67
2023-07-01T01:47:07.348Z,19.68
2023-07-01T01:47:23.379Z,19.68
2023-07-01T01:47:39.504Z,19.68
2023-07-01T01:47:55.661Z,19.69
2023-07-01T01:48:11.859Z,19.69
2023-07-01T01:48:27.906Z,19.7
2023-07-01T01:48:44.070Z,19.71
2023-07-01T01:49:00.202Z,19.71
2023-07-01T01:49:16.356Z,19.71
2023-07-01T01:49:32.610Z,19.71
2023-07-01T01:49:48.647Z,19.72
2023-07-01T01:50:04.891Z,19.72
2023-07-01T01:50:20.934Z,19.71
2023-07-01T01:50:37.108Z,19.72
2023-07-01T01:50:53.257Z,19.72
2023-07-01T01:51:09.453Z,19.72
2023-07-01T01:51:25.514Z,19.73
2023-07-01T01:51:41.684Z,19.73
2023-07-01T01:51:57.805Z,19.74
2023-07-01T01:52:14.025Z,19.74
2023-07-01T01:52:30.109Z,19.75
2023-07-01T01:52:46.258Z,19.75
2023-07-01T01:53:02.392Z,19.76
2023-07-01T01:53:18.527Z,19.76
2023-07-01T01:53:34.688Z,19.76
2023-07-01T01:53:50.868Z,19.75
2023-07-01T01:54:07.167Z,19.72
2023-07-01T01:54:23.121Z,19.71
2023-07-01T01:54:39.258Z,19.7
2023-07-01T01:54:55.396Z,19.7
2023-07-01T01:55:11.588Z,19.7
2023-07-01T01:55:27.742Z,19.7
2023-07-01T01:55:43.888Z,19.71
2023-07-01T01:56:00.022Z,19.71
2023-07-01T01:56:16.130Z,19.71
2023-07-01T01:56:32.274Z,19.71
2023-07-01T01:56:48.414Z,19.71
2023-07-01T01:57:04.582Z,19.71
2023-07-01T01:57:20.718Z,19.7
2023-07-01T01:57:36.896Z,19.71
2023-07-01T01:57:53.008Z,19.71
2023-07-01T01:58:09.181Z,19.71
2023-07-01T01:58:25.300Z,19.71
2023-07-01T01:58:41.440Z,19.7
2023-07-01T01:58:57.644Z,19.69
2023-07-01T01:59:13.752Z,19.69
2023-07-01T01:59:29.883Z,19.68
2023-07-01T01:59:46.051Z,19.65
2023-07-01T02:00:02.188Z,19.65
2023-07-01T02:00:18.312Z,19.63
2023-07-01T02:00:34.481Z,19.62
2023-07-01T02:00:50.763Z,19.56
2023-07-01T02:01:06.813Z,19.55
2023-07-01T02:01:22.944Z,19.53
2023-07-01T02:01:39.084Z,19.48
2023-07-01T02:01:55.228Z,19.48
2023-07-01T02:02:11.407Z,19.47
2023-07-01T02:02:27.527Z,19.46
2023-07-01T02:02:43.722Z,19.44
2023-07-01T02:02:59.905Z,19.43
2023-07-01T02:03:16.147Z,19.41
2023-07-01T02:03:32.195Z,19.42
2023-07-01T02:03:48.457Z,19.42
2023-07-01T02:04:04.651Z,19.43
2023-07-01T02:04:20.673Z,19.43
2023-07-01T02:04:36.862Z,19.44
2023-07-01T02:04:52.979Z,19.45
2023-07-01T02:05:09.067Z,19.47
2023-07-01T02:05:25.208Z,19.47
2023-07-01T02:05:41.296Z,19.48
2023-07-01T02:05:57.376Z,19.5
2023-07-01T02:06:13.521Z,19.51
2023-07-01T02:06:29.658Z,19.48
2023-07-01T02:06:45.845Z,19.48
2023-07-01T02:07:01.997Z,19.47
2023-07-01T02:07:18.123Z,19.46
2023-07-01T02:07:34.262Z,19.45
2023-07-01T02:07:50.441Z,19.45
2023-07-01T02:08:06.676Z,19.45
2023-07-01T02:08:22.689Z,19.46
2023-07-01T02:08:38.837Z,19.47
2023-07-01T02:08:54.988Z,19.47
2023-07-01T02:09:11.177Z,19.49
2023-07-01T02:09:27.298Z,19.48
2023-07-01T02:09:43.438Z,19.49
2023-07-01T02:09:59.544Z,19.48
2023-07-01T02:10:15.738Z,19.48
2023-07-01T02:10:31.884Z,19.49
2023-07-01T02:10:48.412Z,19.49
2023-07-01T02:11:04.178Z,19.49
2023-07-01T02:11:20.369Z,19.48
2023-07-01T02:11:36.438Z,19.49
2023-07-01T02:11:52.590Z,19.48
2023-07-01T02:12:08.736Z,19.47
2023-07-01T02:12:24.864Z,19.47
2023-07-01T02:12:41.018Z,19.48
2023-07-01T02:12:57.154Z,19.47
2023-07-01T02:13:13.329Z,19.48
2023-07-01T02:13:29.453Z,19.48
2023-07-01T02:13:45.650Z,19.49
2023-07-01T02:14:01.783Z,19.49
2023-07-01T02:14:17.964Z,19.48
2023-07-01T02:14:34.031Z,19.48
2023-07-01T02:14:50.223Z,19.48
2023-07-01T02:15:06.324Z,19.47
2023-07-01T02:15:22.509Z,19.47
2023-07-01T02:15:38.631Z,19.48
2023-07-01T02:15:54.859Z,19.48
2023-07-01T02:16:10.975Z,19.48
2023-07-01T02:16:27.086Z,19.47
2023-07-01T02:16:43.264Z,19.47
2023-07-01T02:16:59.450Z,19.45
2023-07-01T02:17:15.486Z,19.44
2023-07-01T02:17:31.669Z,19.45
2023-07-01T02:17:47.842Z,19.44
2023-07-01T02:18:04.034Z,19.44
2023-07-01T02:18:20.105Z,19.45
2023-07-01T02:18:36.222Z,19.44
2023-07-01T02:18:52.348Z,19.45
2023-07-01T02:19:08.507Z,19.45
2023-07-01T02:19:24.675Z,19.45
2023-07-01T02:19:40.787Z,19.42
2023-07-01T02:19:56.947Z,19.42
2023-07-01T02:20:13.091Z,19.42
2023-07-01T02:20:29.232Z,19.42
2023-07-01T02:20:45.687Z,19.4
2023-07-01T02:21:01.522Z,19.41
2023-07-01T02:21:17.667Z,19.42
2023-07-01T02:21:33.834Z,19.42
2023-07-01T02:21:50.073Z,19.43
2023-07-01T02:22:06.149Z,19.44
2023-07-01T02:22:22.268Z,19.43
2023-07-01T02:22:38.442Z,19.43
2023-07-01T02:22:54.573Z,19.43
2023-07-01T02:23:10.696Z,19.43
2023-07-01T02:23:26.826Z,19.42
2023-07-01T02:23:43.018Z,19.42
2023-07-01T02:23:59.125Z,19.42
2023-07-01T02:24:15.296Z,19.42
2023-07-01T02:24:31.426Z,19.41
2023-07-01T02:24:47.596Z,19.39
2023-07-01T02:25:03.718Z,19.38
2023-07-01T02:25:19.850Z,19.35
2023-07-01T02:25:36.006Z,19.33
2023-07-01T02:25:52.151Z,19.33
2023-07-01T02:26:08.313Z,19.31
2023-07-01T02:26:24.476Z,19.3
2023-07-01T02:26:40.577Z,19.29
2023-07-01T02:26:56.749Z,19.28
2023-07-01T02:27:12.888Z,19.26
2023-07-01T02:27:29.012Z,19.26
2023-07-01T02:27:45.177Z,19.25
2023-07-01T02:28:01.310Z,19.24
2023-07-01T02:28:17.504Z,19.23
2023-07-01T02:28:33.612Z,19.23
2023-07-01T02:28:49.740Z,19.21
2023-07-01T02:29:05.929Z,19.2
2023-07-01T02:29:22.059Z,19.2
2023-07-01T02:29:38.215Z,19.2
2023-07-01T02:29:54.338Z,19.2
2023-07-01T02:30:21.767Z,19.22
2023-07-01T02:30:37.948Z,19.21
2023-07-01T02:30:54.097Z,19.18
2023-07-01T02:31:10.275Z,19.18
2023-07-01T02:31:42.486Z,19.2
2023-07-01T02:31:58.643Z,19.21
2023-07-01T02:32:14.782Z,19.22
2023-07-01T02:32:31.024Z,19.22
2023-07-01T02:32:47.213Z,19.23
2023-07-01T02:33:03.241Z,19.25
2023-07-01T02:33:19.369Z,19.25
2023-07-01T02:33:35.548Z,19.27
2023-07-01T02:33:51.645Z,19.28
2023-07-01T02:34:07.810Z,19.29
2023-07-01T02:34:23.969Z,19.29
2023-07-01T02:34:40.121Z,19.3
2023-07-01T02:34:56.283Z,19.3
2023-07-01T02:35:12.373Z,19.31
2023-07-01T02:35:28.540Z,19.32
2023-07-01T02:35:44.677Z,19.34
2023-07-01T02:36:00.849Z,19.34
2023-07-01T02:36:16.970Z,19.32
2023-07-01T02:36:33.129Z,19.3
2023-07-01T02:36:49.252Z,19.29
2023-07-01T02:37:05.508Z,19.29
2023-07-01T02:37:21.574Z,19.28
2023-07-01T02:37:37.805Z,19.29
2023-07-01T02:37:53.861Z,19.28
2023-07-01T02:38:09.984Z,19.28
2023-07-01T02:38:26.137Z,19.28
2023-07-01T02:38:42.267Z,19.27
2023-07-01T02:38:58.429Z,19.27
2023-07-01T02:39:14.599Z,19.26
2023-07-01T02:39:30.781Z,19.27
2023-07-01T02:39:46.871Z,19.26
2023-07-01T02:40:03.013Z,19.26
2023-07-01T02:40:19.172Z,19.28
2023-07-01T02:40:35.292Z,19.27
2023-07-01T02:40:51.437Z,19.26
2023-07-01T02:41:07.576Z,19.25
2023-07-01T02:41:23.739Z,19.25
2023-07-01T02:41:39.892Z,19.24
2023-07-01T02:41:56.026Z,19.23
2023-07-01T02:42:12.155Z,19.23
2023-07-01T02:42:28.308Z,19.23
2023-07-01T02:42:44.465Z,19.23
2023-07-01T02:43:00.632Z,19.23
2023-07-01T02:43:16.770Z,19.22
2023-07-01T02:43:32.885Z,19.2
2023-07-01T02:43:49.069Z,19.21
2023-07-01T02:44:05.195Z,19.21
2023-07-01T02:44:21.350Z,19.21
2023-07-01T02:44:37.489Z,19.21
2023-07-01T02:44:53.615Z,19.2
2023-07-01T02:45:09.776Z,19.21
2023-07-01T02:45:25.942Z,19.21
2023-07-01T02:45:42.066Z,19.22
2023-07-01T02:45:58.238Z,19.23
2023-07-01T02:46:14.428Z,19.22
2023-07-01T02:46:30.510Z,19.21
2023-07-01T02:46:46.733Z,19.2
2023-07-01T02:47:02.775Z,19.19
2023-07-01T02:47:18.930Z,19.2
2023-07-01T02:47:35.176Z,19.21
2023-07-01T02:47:51.229Z,19.21
2023-07-01T02:48:07.388Z,19.22
2023-07-01T02:48:23.524Z,19.23
2023-07-01T02:48:39.695Z,19.23
2023-07-01T02:48:55.843Z,19.23
2023-07-01T02:49:11.950Z,19.25
2023-07-01T02:49:28.097Z,19.25
2023-07-01T02:49:44.756Z,19.24
2023-07-01T02:50:00.387Z,19.25
2023-07-01T02:50:16.584Z,19.24
2023-07-01T02:50:32.700Z,19.22
2023-07-01T02:50:49.258Z,19.21
2023-07-01T02:51:04.994Z,19.19
2023-07-01T02:51:21.119Z,19.18
2023-07-01T02:51:37.293Z,19.16
2023-07-01T02:51:53.399Z,19.15
2023-07-01T02:52:09.561Z,19.14
2023-07-01T02:52:25.680Z,19.1
2023-07-01T02:52:41.868Z,19.1
2023-07-01T02:52:57.983Z,19.09
2023-07-01T02:53:14.205Z,19.09
2023-07-01T02:53:30.280Z,19.1
2023-07-01T02:53:46.435Z,19.11
2023-07-01T02:54:02.580Z,19.11
2023-07-01T02:54:18.730Z,19.12
2023-07-01T02:54:34.910Z,19.12
2023-07-01T02:54:51.013Z,19.13
2023-07-01T02:55:07.269Z,19.13
2023-07-01T02:55:23.359Z,19.12
2023-07-01T02:55:39.458Z,19.13
2023-07-01T02:55:55.614Z,19.13
2023-07-01T02:56:11.749Z,19.14
2023-07-01T02:56:27.875Z,19.13
2023-07-01T02:56:44.056Z,19.12
2023-07-01T02:57:00.188Z,19.13
2023-07-01T02:57:16.307Z,19.12
2023-07-01T02:57:32.465Z,19.12
2023-07-01T02:57:48.610Z,19.12
2023-07-01T02:58:04.796Z,19.12
2023-07-01T02:58:20.941Z,19.11
2023-07-01T02:58:37.050Z,19.12
2023-07-01T02:58:53.195Z,19.12
2023-07-01T02:59:09.320Z,19.12
2023-07-01T02:59:25.478Z,19.11
2023-07-01T02:59:41.639Z,19.09
2023-07-01T02:59:57.817Z,19.1
2023-07-01T03:00:13.965Z,19.09
2023-07-01T03:00:30.115Z,19.09
2023-07-01T03:00:46.576Z,19.09
2023-07-01T03:01:02.349Z,19.09
2023-07-01T03:01:18.555Z,19.09
2023-07-01T03:01:34.672Z,19.09
2023-07-01T03:01:50.856Z,19.1
2023-07-01T03:02:07.026Z,19.11
2023-07-01T03:02:23.125Z,19.12
2023-07-01T03:02:39.340Z,19.14
2023-07-01T03:02:55.480Z,19.15
2023-07-01T03:03:11.567Z,19.16
2023-07-01T03:03:27.905Z,19.17
2023-07-01T03:03:43.877Z,19.18
2023-07-01T03:04:05.726Z,19.17
2023-07-01T03:04:32.316Z,19.16
2023-07-01T03:04:48.420Z,19.15
2023-07-01T03:05:04.556Z,19.15
2023-07-01T03:05:20.680Z,19.15
2023-07-01T03:05:36.844Z,19.15
2023-07-01T03:05:52.965Z,19.17
2023-07-01T03:06:09.149Z,19.17
2023-07-01T03:06:25.349Z,19.18
2023-07-01T03:06:41.403Z,19.19
2023-07-01T03:06:57.586Z,19.19
2023-07-01T03:07:13.694Z,19.2
2023-07-01T03:07:29.881Z,19.19
2023-07-01T03:07:45.983Z,19.19
2023-07-01T03:08:02.136Z,19.18
2023-07-01T03:08:18.319Z,19.17
2023-07-01T03:08:34.436Z,19.17
2023-07-01T03:08:50.580Z,19.15
2023-07-01T03:09:06.761Z,19.14
2023-07-01T03:09:22.887Z,19.13
2023-07-01T03:09:39.075Z,19.14
2023-07-01T03:09:55.155Z,19.14
2023-07-01T03:10:11.319Z,19.15
2023-07-01T03:10:27.466Z,19.15
2023-07-01T03:10:43.641Z,19.16
2023-07-01T03:10:59.750Z,19.16
2023-07-01T03:11:15.898Z,19.17
2023-07-01T03:11:32.056Z,19.18
2023-07-01T03:11:48.179Z,19.19
2023-07-01T03:12:04.372Z,19.19
2023-07-01T03:12:20.475Z,19.19
2023-07-01T03:12:36.638Z,19.19
2023-07-01T03:12:52.754Z,19.19
2023-07-01T03:13:08.927Z,19.2
2023-07-01T03:13:25.045Z,19.19
2023-07-01T03:13:41.205Z,19.19
2023-07-01T03:13:57.348Z,19.18
2023-07-01T03:14:13.518Z,19.17
2023-07-01T03:14:29.759Z,19.16
2023-07-01T03:14:45.782Z,19.15
2023-07-01T03:15:01.979Z,19.16
2023-07-01T03:15:18.063Z,19.14
2023-07-01T03:15:34.204Z,19.15
2023-07-01T03:15:50.429Z,19.14
2023-07-01T03:16:06.621Z,19.14
2023-07-01T03:16:22.719Z,19.14
2023-07-01T03:16:38.932Z,19.14
2023-07-01T03:16:55.011Z,19.15
2023-07-01T03:17:11.171Z,19.14
2023-07-01T03:17:27.303Z,19.09
2023-07-01T03:17:43.390Z,19.09
2023-07-01T03:17:59.601Z,19.08
2023-07-01T03:18:15.704Z,19.08
2023-07-01T03:18:31.808Z,19.08
2023-07-01T03:18:47.968Z,19.09
2023-07-01T03:19:04.125Z,19.09
2023-07-01T03:19:20.286Z,19.09
2023-07-01T03:19:36.393Z,19.08
2023-07-01T03:19:52.573Z,19.08
2023-07-01T03:20:08.710Z,19.09
2023-07-01T03:20:24.892Z,19.1
2023-07-01T03:20:41.020Z,19.1
2023-07-01T03:20:57.163Z,19.1
2023-07-01T03:21:13.266Z,19.04
2023-07-01T03:21:29.404Z,19.02
2023-07-01T03:21:45.557Z,19.04
2023-07-01T03:22:01.711Z,19.05
2023-07-01T03:22:17.922Z,19.04
2023-07-01T03:22:34.006Z,19.04
2023-07-01T03:22:50.153Z,19.03
2023-07-01T03:23:06.301Z,19.04
2023-07-01T03:23:22.446Z,19.04
2023-07-01T03:23:38.571Z,19.04
2023-07-01T03:23:54.744Z,19.05
2023-07-01T03:24:22.154Z,19.08
2023-07-01T03:24:38.341Z,19.1
2023-07-01T03:24:54.474Z,19.1
2023-07-01T03:25:10.589Z,19.11
2023-07-01T03:25:26.748Z,19.11
2023-07-01T03:25:42.914Z,19.13
2023-07-01T03:25:59.020Z,19.14
2023-07-01T03:26:15.164Z,19.13
2023-07-01T03:26:31.322Z,19.12
2023-07-01T03:26:47.469Z,19.12
2023-07-01T03:27:03.603Z,19.14
2023-07-01T03:27:19.789Z,19.15
2023-07-01T03:27:35.928Z,19.14
2023-07-01T03:27:52.048Z,19.15
2023-07-01T03:28:08.243Z,19.16
2023-07-01T03:28:24.361Z,19.17
2023-07-01T03:28:40.510Z,19.17
2023-07-01T03:28:56.661Z,19.17
2023-07-01T03:29:12.825Z,19.18
2023-07-01T03:29:28.959Z,19.18
2023-07-01T03:29:45.120Z,19.2
2023-07-01T03:30:01.234Z,19.2
2023-07-01T03:30:17.364Z,19.2
2023-07-01T03:30:33.507Z,19.19